createdAt,value
2018-03-02T00:02:02.034Z,10.25
2018-03-02T00:04:29.628Z,7.57
2018-03-02T00:06:57.087Z,10.23
2018-03-02T00:09:24.532Z,10.27
2018-03-02T00:11:51.979Z,6.57
2018-03-02T00:14:19.416Z,8.63
2018-03-02T00:16:46.905Z,6.65
2018-03-02T00:19:14.341Z,9.23
2018-03-02T00:21:42.202Z,10.10
2018-03-02T00:24:09.649Z,8.93
2018-03-02T00:38:39.324Z,7.65
2018-03-02T00:41:06.761Z,6.87
2018-03-02T00:43:34.184Z,7.45
2018-03-02T00:46:01.617Z,10.00
2018-03-02T00:48:29.048Z,8.70
2018-03-02T00:50:56.497Z,7.35
2018-03-02T00:53:23.933Z,11.15
2018-03-02T00:55:51.380Z,11.63
2018-03-02T00:58:18.816Z,7.82
2018-03-02T01:00:46.644Z,9.07
2018-03-02T01:03:14.080Z,9.23
2018-03-02T01:05:41.514Z,9.35
2018-03-02T01:08:08.942Z,9.38
2018-03-02T01:10:36.771Z,10.07
2018-03-02T01:13:04.208Z,8.95
2018-03-02T01:15:31.645Z,8.07
2018-03-02T01:17:59.071Z,9.07
2018-03-02T01:20:26.906Z,9.57
2018-03-02T01:22:54.324Z,7.37
2018-03-02T01:25:21.772Z,7.65
2018-03-02T01:27:49.196Z,7.50
2018-03-02T01:30:16.639Z,8.30
2018-03-02T01:32:44.074Z,9.48
2018-03-02T01:35:11.508Z,9.75
2018-03-02T01:37:38.961Z,8.55
2018-03-02T01:40:06.393Z,7.95
2018-03-02T01:42:34.228Z,11.10
2018-03-02T01:45:01.702Z,9.45
2018-03-02T01:47:29.144Z,12.40
2018-03-02T01:49:56.580Z,10.00
2018-03-02T01:52:24.036Z,8.77
2018-03-02T01:54:51.469Z,7.78
2018-03-02T01:57:18.929Z,8.23
2018-03-02T01:59:46.357Z,7.32
2018-03-02T02:02:14.188Z,8.27
2018-03-02T02:04:41.628Z,9.20
2018-03-02T02:07:09.058Z,9.85
2018-03-02T02:09:36.481Z,7.47
2018-03-02T02:12:04.328Z,7.03
2018-03-02T02:14:31.760Z,11.52
2018-03-02T02:16:59.191Z,7.05
2018-03-02T02:19:26.634Z,8.88
2018-03-02T02:21:54.079Z,7.43
2018-03-02T02:24:21.487Z,7.43
2018-03-02T02:26:48.936Z,8.35
2018-03-02T02:29:16.357Z,9.20
2018-03-02T02:31:43.789Z,9.45
2018-03-02T02:34:11.212Z,8.65
2018-03-02T02:36:38.658Z,8.35
2018-03-02T02:39:06.081Z,11.27
2018-03-02T02:41:33.521Z,8.77
2018-03-02T02:44:00.941Z,8.40
2018-03-02T02:46:28.382Z,10.20
2018-03-02T02:48:55.806Z,11.12
2018-03-02T02:51:23.245Z,8.65
2018-03-02T02:53:50.666Z,9.15
2018-03-02T02:56:18.104Z,8.30
2018-03-02T02:58:45.530Z,8.77
2018-03-02T03:01:13.355Z,8.68
2018-03-02T03:03:40.807Z,8.07
2018-03-02T03:06:08.244Z,6.32
2018-03-02T03:08:35.668Z,9.48
2018-03-02T03:11:03.114Z,8.65
2018-03-02T03:13:30.931Z,9.55
2018-03-02T03:15:58.376Z,8.70
2018-03-02T03:18:25.795Z,6.05
2018-03-02T03:20:53.237Z,8.23
2018-03-02T03:23:20.674Z,6.05
2018-03-02T03:25:48.113Z,8.95
2018-03-02T03:28:15.553Z,7.25
2018-03-02T03:30:42.997Z,5.97
2018-03-02T03:33:10.417Z,6.93
2018-03-02T03:35:37.849Z,4.70
2018-03-02T03:38:05.286Z,5.60
2018-03-02T03:40:32.716Z,8.40
2018-03-02T03:43:00.153Z,8.48
2018-03-02T03:45:27.622Z,7.25
2018-03-02T03:47:55.456Z,8.20
2018-03-02T03:50:22.878Z,4.80
2018-03-02T03:52:50.308Z,8.35
2018-03-02T03:55:17.732Z,7.87
2018-03-02T03:57:45.564Z,7.95
2018-03-02T04:00:12.995Z,8.52
2018-03-02T04:02:40.422Z,9.73
2018-03-02T04:05:08.241Z,7.80
2018-03-02T04:07:35.739Z,6.57
2018-03-02T04:10:03.115Z,7.00
2018-03-02T04:12:30.576Z,8.65
2018-03-02T04:14:58.005Z,9.07
2018-03-02T04:17:25.852Z,6.82
2018-03-02T04:19:53.286Z,6.53
2018-03-02T04:22:20.725Z,9.10
2018-03-02T04:24:48.155Z,6.70
2018-03-02T04:27:15.601Z,4.90
2018-03-02T04:29:43.425Z,9.50
2018-03-02T04:32:10.871Z,6.22
2018-03-02T04:34:38.742Z,6.12
2018-03-02T04:37:06.187Z,7.37
2018-03-02T04:39:33.622Z,5.97
2018-03-02T04:42:01.440Z,10.10
2018-03-02T04:44:28.870Z,6.97
2018-03-02T04:46:56.366Z,10.85
2018-03-02T04:49:23.800Z,9.73
2018-03-02T04:51:51.241Z,8.13
2018-03-02T04:54:18.664Z,10.05
2018-03-02T04:56:46.105Z,8.98
2018-03-02T04:59:13.531Z,7.22
2018-03-02T05:01:40.972Z,10.15
2018-03-02T05:04:08.427Z,9.50
2018-03-02T05:06:35.869Z,10.88
2018-03-02T05:09:03.297Z,7.65
2018-03-02T05:11:31.120Z,5.12
2018-03-02T05:13:58.548Z,10.20
2018-03-02T05:16:25.982Z,8.10
2018-03-02T05:18:53.405Z,10.00
2018-03-02T05:21:20.840Z,6.80
2018-03-02T05:23:48.278Z,5.50
2018-03-02T05:26:15.726Z,8.98
2018-03-02T05:28:43.148Z,5.65
2018-03-02T05:31:10.981Z,8.90
2018-03-02T05:33:38.401Z,5.40
2018-03-02T05:36:05.837Z,6.72
2018-03-02T05:38:33.261Z,2.72
2018-03-02T05:41:00.697Z,7.95
2018-03-02T05:43:28.130Z,6.75
2018-03-02T05:45:55.556Z,4.87
2018-03-02T05:48:23.376Z,4.37
2018-03-02T05:50:50.805Z,8.65
2018-03-02T05:53:18.240Z,7.32
2018-03-02T05:55:46.062Z,8.18
2018-03-02T05:58:13.508Z,3.67
2018-03-02T06:00:40.928Z,6.50
2018-03-02T06:03:08.378Z,7.03
2018-03-02T06:05:36.198Z,8.07
2018-03-02T06:08:03.628Z,6.03
2018-03-02T06:10:31.056Z,4.00
2018-03-02T06:12:58.480Z,5.97
2018-03-02T06:15:25.904Z,5.65
2018-03-02T06:17:53.341Z,8.25
2018-03-02T06:20:20.765Z,7.55
2018-03-02T06:22:48.600Z,6.72
2018-03-02T06:25:16.042Z,5.28
2018-03-02T06:27:43.593Z,7.25
2018-03-02T06:30:11.025Z,6.30
2018-03-02T06:32:38.456Z,10.10
2018-03-02T06:35:06.343Z,7.40
2018-03-02T06:37:33.773Z,5.57
2018-03-02T06:40:01.604Z,5.95
2018-03-02T06:42:29.043Z,6.53
2018-03-02T06:44:56.465Z,6.03
2018-03-02T06:47:23.891Z,5.75
2018-03-02T06:49:51.330Z,6.75
2018-03-02T06:52:18.800Z,8.70
2018-03-02T06:54:46.224Z,6.30
2018-03-02T06:57:16.400Z,11.90
2018-03-02T06:59:44.225Z,5.93
2018-03-02T07:02:11.669Z,6.90
2018-03-02T07:04:39.112Z,6.60
2018-03-02T07:07:06.550Z,9.20
2018-03-02T07:09:33.975Z,6.25
2018-03-02T07:12:01.410Z,8.88
2018-03-02T07:14:28.837Z,8.85
2018-03-02T07:16:56.264Z,6.90
2018-03-02T07:19:24.097Z,8.82
2018-03-02T07:21:51.524Z,6.95
2018-03-02T07:24:18.949Z,9.43
2018-03-02T07:26:46.776Z,9.00
2018-03-02T07:29:14.208Z,8.23
2018-03-02T07:31:41.663Z,8.95
2018-03-02T07:34:09.110Z,6.72
2018-03-02T07:36:36.536Z,3.65
2018-03-02T07:39:03.980Z,6.90
2018-03-02T07:41:31.404Z,6.18
2018-03-02T07:43:58.836Z,6.35
2018-03-02T07:46:26.285Z,7.85
2018-03-02T07:48:53.716Z,6.15
2018-03-02T07:51:21.547Z,9.63
2018-03-02T07:53:48.980Z,6.55
2018-03-02T07:56:16.408Z,8.60
2018-03-02T07:58:43.850Z,9.45
2018-03-02T08:01:11.673Z,8.95
2018-03-02T08:03:39.113Z,7.12
2018-03-02T08:06:06.562Z,13.73
2018-03-02T08:08:34.017Z,6.10
2018-03-02T08:11:01.459Z,7.40
2018-03-02T08:13:28.932Z,10.13
2018-03-02T08:15:56.376Z,9.52
2018-03-02T08:18:23.814Z,9.40
2018-03-02T08:20:51.236Z,8.88
2018-03-02T08:23:18.724Z,9.45
2018-03-02T08:25:46.147Z,5.22
2018-03-02T08:40:52.984Z,6.12
2018-03-02T08:43:20.458Z,10.05
2018-03-02T08:45:47.888Z,7.53
2018-03-02T08:48:15.308Z,7.70
2018-03-02T08:50:42.751Z,6.78
2018-03-02T08:53:10.201Z,7.70
2018-03-02T08:55:37.616Z,8.85
2018-03-02T08:58:05.053Z,10.38
2018-03-02T09:00:32.529Z,7.68
2018-03-02T09:02:59.940Z,11.93
2018-03-02T09:05:27.792Z,8.63
2018-03-02T09:07:55.226Z,6.25
2018-03-02T09:10:22.663Z,7.78
2018-03-02T09:12:50.101Z,10.40
2018-03-02T09:15:17.546Z,10.60
2018-03-02T09:17:45.009Z,9.23
2018-03-02T09:20:12.441Z,19.80
2018-03-02T09:22:40.289Z,9.40
2018-03-02T09:25:07.729Z,9.82
2018-03-02T09:27:35.161Z,12.43
2018-03-02T09:30:02.623Z,19.85
2018-03-02T09:32:30.042Z,13.85
2018-03-02T09:34:57.905Z,10.02
2018-03-02T09:37:25.733Z,11.07
2018-03-02T09:39:53.172Z,7.43
2018-03-02T09:42:20.618Z,8.45
2018-03-02T09:44:48.082Z,9.82
2018-03-02T09:47:15.512Z,5.95
2018-03-02T09:49:42.949Z,12.65
2018-03-02T09:52:10.786Z,12.10
2018-03-02T09:54:38.277Z,11.20
2018-03-02T09:57:06.109Z,13.00
2018-03-02T09:59:33.548Z,10.02
2018-03-02T10:02:00.990Z,12.88
2018-03-02T10:04:28.426Z,8.63
2018-03-02T10:06:55.869Z,10.57
2018-03-02T10:09:23.696Z,10.82
2018-03-02T10:11:51.146Z,12.43
2018-03-02T10:14:18.575Z,12.43
2018-03-02T10:16:46.058Z,9.85
2018-03-02T10:19:13.503Z,12.68
2018-03-02T10:21:40.938Z,7.75
2018-03-02T10:24:08.368Z,13.02
2018-03-02T10:26:35.796Z,9.05
2018-03-02T10:29:03.228Z,7.07
2018-03-02T10:31:30.679Z,9.15
2018-03-02T10:33:58.117Z,10.68
2018-03-02T10:36:25.567Z,9.82
2018-03-02T10:38:53.019Z,11.35
2018-03-02T10:41:20.856Z,10.23
2018-03-02T10:43:48.300Z,9.80
2018-03-02T10:46:15.751Z,10.57
2018-03-02T10:48:43.198Z,10.77
2018-03-02T10:51:10.627Z,10.20
2018-03-02T10:53:38.086Z,10.82
2018-03-02T10:56:05.767Z,10.18
2018-03-02T10:58:34.141Z,13.52
2018-03-02T11:01:07.137Z,13.98
2018-03-02T11:03:34.574Z,11.30
2018-03-02T11:06:02.008Z,11.20
2018-03-02T11:08:29.828Z,11.35
2018-03-02T11:10:57.260Z,11.38
2018-03-02T11:13:24.697Z,13.07
2018-03-02T11:15:52.123Z,8.60
2018-03-02T11:18:19.597Z,11.63
2018-03-02T11:20:47.020Z,13.10
2018-03-02T11:23:14.452Z,11.38
2018-03-02T11:25:41.894Z,11.50
2018-03-02T11:28:09.348Z,10.93
2018-03-02T11:30:36.794Z,13.55
2018-03-02T11:33:04.241Z,13.00
2018-03-02T11:35:31.687Z,11.27
2018-03-02T11:37:59.500Z,13.85
2018-03-02T11:40:26.932Z,13.52
2018-03-02T11:42:54.384Z,10.35
2018-03-02T11:45:21.818Z,16.90
2018-03-02T11:47:49.254Z,14.32
2018-03-02T11:50:16.694Z,10.70
2018-03-02T11:52:44.135Z,10.93
2018-03-02T11:55:11.578Z,11.85
2018-03-02T11:57:39.005Z,12.90
2018-03-02T12:00:06.457Z,12.70
2018-03-02T12:02:34.272Z,12.82
2018-03-02T12:05:01.715Z,14.18
2018-03-02T12:07:29.181Z,13.27
2018-03-02T12:09:56.832Z,13.88
2018-03-02T12:12:24.256Z,13.52
2018-03-02T12:14:51.696Z,10.77
2018-03-02T12:17:19.520Z,9.18
2018-03-02T12:19:46.964Z,13.38
2018-03-02T12:22:14.392Z,13.80
2018-03-02T12:24:42.238Z,15.05
2018-03-02T12:27:09.660Z,11.40
2018-03-02T12:29:37.101Z,16.75
2018-03-02T12:32:04.536Z,13.90
2018-03-02T12:34:31.981Z,13.90
2018-03-02T12:36:59.412Z,12.43
2018-03-02T12:39:26.855Z,12.27
2018-03-02T12:41:54.282Z,13.68
2018-03-02T12:44:21.721Z,13.95
2018-03-02T12:46:49.169Z,14.93
2018-03-02T12:49:16.727Z,8.95
2018-03-02T12:51:44.431Z,13.80
2018-03-02T12:54:11.905Z,11.82
2018-03-02T12:56:39.332Z,11.05
2018-03-02T12:59:06.814Z,13.60
2018-03-02T13:01:34.256Z,12.35
2018-03-02T13:04:01.771Z,12.70
2018-03-02T13:06:29.584Z,10.95
2018-03-02T13:08:57.020Z,11.02
2018-03-02T13:11:24.445Z,8.48
2018-03-02T13:13:51.881Z,11.52
2018-03-02T13:16:19.306Z,12.18
2018-03-02T13:18:46.739Z,10.63
2018-03-02T13:21:14.184Z,10.57
2018-03-02T13:23:42.335Z,9.98
2018-03-02T13:26:09.776Z,13.07
2018-03-02T13:28:49.075Z,9.02
2018-03-02T13:31:16.526Z,11.07
2018-03-02T13:33:55.781Z,12.25
2018-03-02T13:36:23.223Z,7.45
2018-03-02T13:38:51.340Z,13.07
2018-03-02T13:41:30.997Z,14.43
2018-03-02T13:43:59.272Z,15.80
2018-03-02T13:46:26.748Z,14.35
2018-03-02T13:49:05.937Z,12.07
2018-03-02T13:51:33.424Z,13.60
2018-03-02T13:54:00.855Z,14.18
2018-03-02T13:56:40.046Z,13.07
2018-03-02T13:59:08.392Z,14.15
2018-03-02T14:01:35.848Z,16.90
2018-03-02T14:04:15.386Z,14.18
2018-03-02T14:06:42.830Z,11.55
2018-03-02T14:09:10.684Z,13.73
2018-03-02T14:11:38.136Z,13.98
2018-03-02T14:14:06.008Z,16.45
2018-03-02T14:16:33.486Z,15.52
2018-03-02T14:19:01.317Z,15.13
2018-03-02T14:21:28.793Z,15.35
2018-03-02T14:23:56.225Z,14.30
2018-03-02T14:26:23.677Z,13.50
2018-03-02T14:28:51.149Z,13.40
2018-03-02T14:31:18.603Z,14.45
2018-03-02T14:33:46.048Z,15.98
2018-03-02T14:36:13.500Z,13.02
2018-03-02T14:38:40.937Z,14.55
2018-03-02T14:41:08.406Z,14.87
2018-03-02T14:43:35.855Z,15.55
2018-03-02T14:46:03.524Z,13.90
2018-03-02T14:48:30.949Z,13.62
2018-03-02T14:50:58.395Z,16.20
2018-03-02T14:53:25.868Z,18.02
2018-03-02T14:55:53.816Z,14.05
2018-03-02T14:58:21.311Z,16.80
2018-03-02T15:00:48.814Z,16.08
2018-03-02T15:03:16.268Z,15.52
2018-03-02T15:05:43.716Z,15.48
2018-03-02T15:08:11.174Z,16.12
2018-03-02T15:10:38.623Z,17.48
2018-03-02T15:13:06.067Z,14.90
2018-03-02T15:15:33.513Z,15.65
2018-03-02T15:18:01.012Z,16.30
2018-03-02T15:20:28.473Z,15.18
2018-03-02T15:22:56.344Z,14.13
2018-03-02T15:25:24.419Z,17.75
2018-03-02T15:27:53.116Z,15.25
2018-03-02T15:30:20.941Z,14.75
2018-03-02T15:32:48.391Z,18.17
2018-03-02T15:35:15.820Z,16.62
2018-03-02T15:37:43.256Z,16.15
2018-03-02T15:40:10.688Z,17.12
2018-03-02T15:42:38.535Z,16.65
2018-03-02T15:45:05.957Z,15.65
2018-03-02T15:47:35.836Z,15.73
2018-03-02T15:50:03.273Z,15.63
2018-03-02T15:52:30.700Z,14.52
2018-03-02T15:54:58.131Z,17.45
2018-03-02T15:57:25.578Z,19.73
2018-03-02T15:59:53.008Z,15.68
2018-03-02T16:02:20.451Z,15.77
2018-03-02T16:04:47.870Z,17.10
2018-03-02T16:07:15.297Z,14.65
2018-03-02T16:09:42.764Z,12.88
2018-03-02T16:12:10.200Z,13.98
2018-03-02T16:14:37.631Z,13.65
2018-03-02T16:17:05.073Z,14.40
2018-03-02T16:19:32.528Z,16.10
2018-03-02T16:21:59.978Z,14.60
2018-03-02T16:24:27.424Z,15.40
2018-03-02T16:26:54.892Z,16.50
2018-03-02T16:29:22.399Z,16.92
2018-03-02T16:31:49.827Z,15.88
2018-03-02T16:34:17.260Z,15.70
2018-03-02T16:36:44.689Z,14.32
2018-03-02T16:39:12.120Z,15.07
2018-03-02T16:41:39.550Z,16.17
2018-03-02T16:44:06.989Z,14.95
2018-03-02T16:46:34.412Z,15.85
2018-03-02T16:49:01.862Z,16.40
2018-03-02T16:51:29.306Z,15.50
2018-03-02T16:53:57.143Z,14.30
2018-03-02T16:56:24.952Z,15.73
2018-03-02T16:58:52.422Z,21.30
2018-03-02T17:01:19.845Z,15.77
2018-03-02T17:03:47.341Z,15.00
2018-03-02T17:06:14.785Z,16.62
2018-03-02T17:08:42.233Z,16.90
2018-03-02T17:11:09.669Z,12.55
2018-03-02T17:13:37.540Z,16.60
2018-03-02T17:16:05.004Z,17.33
2018-03-02T17:18:33.643Z,18.23
2018-03-02T17:21:01.127Z,15.50
2018-03-02T17:23:29.155Z,15.45
2018-03-02T17:25:58.115Z,18.05
2018-03-02T17:28:25.565Z,18.02
2018-03-02T17:30:53.823Z,14.25
2018-03-02T17:33:21.279Z,17.73
2018-03-02T17:35:48.786Z,15.77
2018-03-02T17:38:16.230Z,18.65
2018-03-02T17:40:43.692Z,17.67
2018-03-02T17:43:11.894Z,14.95
2018-03-02T17:45:39.374Z,14.87
2018-03-02T17:48:07.061Z,17.27
2018-03-02T17:50:34.781Z,16.27
2018-03-02T17:53:02.219Z,19.70
2018-03-02T17:55:29.639Z,18.52
2018-03-02T17:57:57.072Z,15.82
2018-03-02T18:00:24.909Z,16.90
2018-03-02T18:02:52.335Z,16.58
2018-03-02T18:05:19.769Z,15.50
2018-03-02T18:07:47.209Z,15.80
2018-03-02T18:10:15.040Z,19.58
2018-03-02T18:12:42.468Z,16.33
2018-03-02T18:15:09.901Z,16.95
2018-03-02T18:17:37.346Z,18.67
2018-03-02T18:20:04.812Z,17.50
2018-03-02T18:22:32.249Z,17.15
2018-03-02T18:24:59.677Z,16.33
2018-03-02T18:27:27.120Z,15.63
2018-03-02T18:29:54.580Z,16.15
2018-03-02T18:32:22.015Z,16.45
2018-03-02T18:34:50.369Z,18.05
2018-03-02T18:37:17.809Z,20.95
2018-03-02T18:39:45.629Z,15.48
2018-03-02T18:42:13.066Z,17.52
2018-03-02T18:44:40.536Z,15.90
2018-03-02T18:47:07.969Z,18.00
2018-03-02T18:49:35.440Z,15.35
2018-03-02T18:52:02.902Z,16.67
2018-03-02T18:54:30.320Z,15.27
2018-03-02T18:56:58.156Z,16.70
2018-03-02T18:59:25.585Z,17.92
2018-03-02T19:01:53.037Z,16.42
2018-03-02T19:04:20.464Z,16.60
2018-03-02T19:06:47.919Z,18.37
2018-03-02T19:09:15.344Z,17.25
2018-03-02T19:11:42.781Z,16.67
2018-03-02T19:14:10.220Z,16.70
2018-03-02T19:16:37.720Z,17.10
2018-03-02T19:19:05.152Z,19.33
2018-03-02T19:21:32.585Z,17.12
2018-03-02T19:24:00.009Z,17.48
2018-03-02T19:26:27.848Z,14.55
2018-03-02T19:28:55.284Z,13.98
2018-03-02T19:31:22.712Z,13.88
2018-03-02T19:33:50.146Z,15.43
2018-03-02T19:36:17.581Z,15.88
2018-03-02T19:38:45.028Z,17.95
2018-03-02T19:41:12.490Z,14.45
2018-03-02T19:43:39.937Z,15.57
2018-03-02T19:46:07.379Z,15.90
2018-03-02T19:48:34.809Z,17.42
2018-03-02T19:51:02.236Z,19.73
2018-03-02T19:53:30.074Z,17.92
2018-03-02T19:55:57.501Z,14.18
2018-03-02T19:58:24.936Z,14.25
2018-03-02T20:00:52.405Z,15.68
2018-03-02T20:03:19.804Z,16.60
2018-03-02T20:05:47.229Z,16.58
2018-03-02T20:08:14.661Z,15.82
2018-03-02T20:10:42.092Z,15.50
2018-03-02T20:13:09.916Z,17.15
2018-03-02T20:15:37.361Z,18.37
2018-03-02T20:18:04.788Z,17.25
2018-03-02T20:20:32.234Z,15.85
2018-03-02T20:22:59.671Z,16.33
2018-03-02T20:25:27.124Z,15.98
2018-03-02T20:27:54.548Z,17.85
2018-03-02T20:30:22.002Z,17.92
2018-03-02T20:32:49.440Z,17.90
2018-03-02T20:35:16.872Z,17.33
2018-03-02T20:37:44.704Z,19.67
2018-03-02T20:40:12.217Z,15.88
2018-03-02T20:42:39.653Z,17.35
2018-03-02T20:45:07.484Z,19.35
2018-03-02T20:47:34.927Z,18.08
2018-03-02T20:50:02.353Z,16.95
2018-03-02T20:52:29.859Z,24.73
2018-03-02T20:54:57.249Z,17.62
2018-03-02T20:57:24.708Z,18.35
2018-03-02T20:59:52.152Z,17.55
2018-03-02T21:02:19.592Z,20.08
2018-03-02T21:04:47.036Z,17.33
2018-03-02T21:07:14.484Z,18.67
2018-03-02T21:09:41.909Z,18.65
2018-03-02T21:12:09.353Z,19.12
2018-03-02T21:14:36.788Z,32.58
2018-03-02T21:17:04.648Z,20.23
2018-03-02T21:19:32.097Z,22.83
2018-03-02T21:21:59.533Z,21.65
2018-03-02T21:24:26.976Z,20.15
2018-03-02T21:26:54.413Z,19.75
2018-03-02T21:29:21.865Z,20.95
2018-03-02T21:31:49.296Z,18.67
2018-03-02T21:34:18.978Z,21.55
2018-03-02T21:36:44.560Z,20.00
2018-03-02T21:39:12.138Z,21.25
2018-03-02T21:41:39.457Z,19.12
2018-03-02T21:44:06.957Z,22.40
2018-03-02T21:46:34.435Z,19.17
2018-03-02T21:49:01.888Z,21.73
2018-03-02T21:51:29.290Z,21.77
2018-03-02T21:53:56.740Z,23.65
2018-03-02T21:56:24.177Z,22.45
2018-03-02T21:58:52.002Z,20.48
2018-03-02T22:01:19.441Z,21.55
2018-03-02T22:03:46.879Z,17.85
2018-03-02T22:06:14.327Z,19.58
2018-03-02T22:08:41.777Z,20.33
2018-03-02T22:11:09.257Z,22.55
2018-03-02T22:13:36.684Z,20.27
2018-03-02T22:16:04.144Z,24.15
2018-03-02T22:18:31.586Z,20.65
2018-03-02T22:20:59.050Z,24.00
2018-03-02T22:23:26.455Z,16.17
2018-03-02T22:25:53.890Z,21.77
2018-03-02T22:28:21.320Z,21.52
2018-03-02T22:30:49.181Z,20.77
2018-03-02T22:33:17.009Z,19.50
2018-03-02T22:35:44.441Z,20.85
2018-03-02T22:38:11.876Z,20.85
2018-03-02T22:40:39.322Z,19.95
2018-03-02T22:43:07.144Z,21.62
2018-03-02T22:45:34.608Z,20.95
2018-03-02T22:48:02.070Z,21.85
2018-03-02T22:50:29.512Z,20.50
2018-03-02T22:52:56.972Z,16.75
2018-03-02T22:55:27.946Z,21.67
2018-03-02T22:57:57.294Z,21.37
2018-03-02T23:00:25.618Z,22.33
2018-03-02T23:02:53.061Z,18.73
2018-03-02T23:05:20.492Z,23.35
2018-03-02T23:07:48.007Z,20.50
2018-03-02T23:10:16.084Z,22.10
2018-03-02T23:12:43.935Z,19.67
2018-03-02T23:15:11.804Z,19.52
2018-03-02T23:17:39.651Z,20.92
2018-03-02T23:20:08.068Z,17.50
2018-03-02T23:22:35.516Z,20.42
2018-03-02T23:25:02.972Z,21.92
2018-03-02T23:27:30.453Z,21.23
2018-03-02T23:29:57.965Z,22.00
2018-03-02T23:32:26.300Z,21.83
2018-03-02T23:34:53.777Z,22.83
2018-03-02T23:37:21.227Z,21.27
2018-03-02T23:39:48.741Z,20.20
2018-03-02T23:42:17.139Z,20.73
2018-03-02T23:44:44.809Z,24.30
2018-03-02T23:47:12.502Z,21.48
2018-03-02T23:49:39.963Z,23.65
2018-03-02T23:52:07.423Z,18.05
2018-03-02T23:54:34.880Z,22.55
2018-03-02T23:57:02.908Z,20.40
2018-03-02T23:59:30.391Z,17.45
